Time;durP1;ratioP1;P1;durP2;ratioP2;P2;SDS_P1;SDS_P2;PMS_P1;PMS_P2;Temp;Humidity;BMP_temperature;BMP_pressure;BME280_temperature;BME280_humidity;BME280_pressure;Samples;Min_cycle;Max_cycle;Signal;HPM_P1;HPM_P2
2023/08/01 00:01:45;;;;;;;8.60;4.47;;;;;;;;;;7393335;19;20009;-75
2023/08/01 00:04:11;;;;;;;9.23;4.45;;;;;;;;;;7370103;19;20008;-77
2023/08/01 00:06:36;;;;;;;9.32;4.60;;;;;;;;;;7370336;19;20010;-75
2023/08/01 00:09:01;;;;;;;10.90;4.30;;;;;;;;;;7372361;19;20021;-76
2023/08/01 00:11:26;;;;;;;10.40;4.50;;;;;;;;;;7370934;19;20492;-76
2023/08/01 00:13:52;;;;;;;10.75;4.75;;;;;;;;;;7392093;19;20015;-76
2023/08/01 00:16:17;;;;;;;10.50;4.65;;;;;;;;;;7371792;19;20541;-76
2023/08/01 00:18:43;;;;;;;15.32;4.70;;;;;;;;;;7372330;19;20014;-76
2023/08/01 00:21:10;;;;;;;8.60;3.95;;;;;;;;;;7374091;19;20013;-75
2023/08/01 00:23:35;;;;;;;10.82;4.03;;;;;;;;;;7372204;19;20002;-76
2023/08/01 00:26:01;;;;;;;10.82;4.35;;;;;;;;;;7377722;19;20013;-78
2023/08/01 00:28:26;;;;;;;9.70;4.10;;;;;;;;;;7396665;19;20026;-76
2023/08/01 00:31:08;;;;;;;9.20;4.65;;;;;;;;;;7373365;19;20354;-76
2023/08/01 00:33:34;;;;;;;10.15;4.85;;;;;;;;;;7371187;19;20010;-78
2023/08/01 00:36:00;;;;;;;10.23;4.40;;;;;;;;;;7371861;19;20169;-77
2023/08/01 00:38:25;;;;;;;9.65;4.70;;;;;;;;;;7371481;19;20002;-77
2023/08/01 00:40:51;;;;;;;13.00;4.70;;;;;;;;;;7395251;19;20012;-77
2023/08/01 00:43:16;;;;;;;10.77;4.13;;;;;;;;;;7371641;19;20497;-76
2023/08/01 00:45:42;;;;;;;12.00;4.07;;;;;;;;;;7372667;19;20084;-77
2023/08/01 00:48:07;;;;;;;9.52;4.50;;;;;;;;;;7373227;19;20017;-78
2023/08/01 00:50:33;;;;;;;12.43;4.95;;;;;;;;;;7374703;19;20479;-77
2023/08/01 00:52:58;;;;;;;14.05;5.32;;;;;;;;;;7396326;19;20102;-78
2023/08/01 00:55:25;;;;;;;11.13;4.47;;;;;;;;;;7369879;19;20007;-77
2023/08/01 00:57:51;;;;;;;8.55;4.35;;;;;;;;;;7369834;19;20031;-77
2023/08/01 01:00:17;;;;;;;11.43;4.72;;;;;;;;;;7372405;19;20011;-78
2023/08/01 01:02:42;;;;;;;12.10;4.95;;;;;;;;;;7372820;19;20070;-77
2023/08/01 01:05:08;;;;;;;9.77;4.50;;;;;;;;;;7364786;19;20014;-77
2023/08/01 01:07:34;;;;;;;10.38;4.55;;;;;;;;;;7395511;19;20598;-78
2023/08/01 01:09:59;;;;;;;12.43;4.85;;;;;;;;;;7372385;19;20014;-78
2023/08/01 01:12:24;;;;;;;11.80;5.13;;;;;;;;;;7371990;19;20007;-78
2023/08/01 01:14:50;;;;;;;12.35;5.55;;;;;;;;;;7372758;19;20010;-78
2023/08/01 01:17:15;;;;;;;10.55;5.10;;;;;;;;;;7372460;19;20022;-77
2023/08/01 01:19:40;;;;;;;10.77;4.68;;;;;;;;;;7392424;19;20006;-77
2023/08/01 01:22:08;;;;;;;9.95;4.78;;;;;;;;;;7370721;19;20420;-78
2023/08/01 01:24:35;;;;;;;8.35;4.55;;;;;;;;;;7370405;19;20104;-78
2023/08/01 01:27:03;;;;;;;11.73;5.00;;;;;;;;;;7371321;19;20078;-78
2023/08/01 01:29:29;;;;;;;11.77;4.97;;;;;;;;;;7372069;19;20014;-77
2023/08/01 01:31:55;;;;;;;10.98;4.85;;;;;;;;;;7394319;19;19998;-77
2023/08/01 01:34:21;;;;;;;13.15;5.10;;;;;;;;;;7370153;19;20012;-78
2023/08/01 01:36:46;;;;;;;11.63;5.15;;;;;;;;;;7372288;19;20006;-78
2023/08/01 01:39:12;;;;;;;14.18;5.07;;;;;;;;;;7372450;19;20011;-78
2023/08/01 01:41:37;;;;;;;12.05;4.95;;;;;;;;;;7372272;19;20608;-77
2023/08/01 01:44:02;;;;;;;13.98;5.47;;;;;;;;;;7370347;19;20009;-77
2023/08/01 01:46:28;;;;;;;11.38;4.88;;;;;;;;;;7394199;19;20003;-78
2023/08/01 01:48:53;;;;;;;10.52;4.97;;;;;;;;;;7376082;19;20404;-77
2023/08/01 01:51:21;;;;;;;11.77;4.72;;;;;;;;;;7377717;19;20006;-77
2023/08/01 01:53:46;;;;;;;10.00;4.75;;;;;;;;;;7369972;19;20017;-77
2023/08/01 01:56:11;;;;;;;11.68;5.35;;;;;;;;;;7370395;19;20074;-77
2023/08/01 01:58:37;;;;;;;10.52;4.80;;;;;;;;;;7391564;19;20013;-77
2023/08/01 02:01:02;;;;;;;9.10;4.72;;;;;;;;;;7369709;19;20027;-76
2023/08/01 02:03:27;;;;;;;11.73;5.00;;;;;;;;;;7368084;19;20014;-76
2023/08/01 02:05:53;;;;;;;11.32;4.68;;;;;;;;;;7371068;19;20010;-77
2023/08/01 02:08:18;;;;;;;10.50;4.70;;;;;;;;;;7373007;19;20010;-76
2023/08/01 02:10:43;;;;;;;8.23;4.40;;;;;;;;;;7393248;19;20022;-77
2023/08/01 02:13:08;;;;;;;13.18;5.75;;;;;;;;;;7370373;19;20317;-76
2023/08/01 02:15:34;;;;;;;9.80;4.72;;;;;;;;;;7368159;19;20002;-77
2023/08/01 02:17:59;;;;;;;10.20;4.93;;;;;;;;;;7370135;19;20035;-77
2023/08/01 02:20:25;;;;;;;13.40;4.95;;;;;;;;;;7370914;19;20035;-78
2023/08/01 02:22:50;;;;;;;8.70;4.20;;;;;;;;;;7392280;19;19998;-77
2023/08/01 02:25:15;;;;;;;8.52;4.10;;;;;;;;;;7368503;19;20055;-77
2023/08/01 02:27:40;;;;;;;8.10;4.15;;;;;;;;;;7370118;19;20002;-76
2023/08/01 02:30:06;;;;;;;8.95;4.43;;;;;;;;;;7370491;19;20068;-77
2023/08/01 02:32:32;;;;;;;8.88;4.40;;;;;;;;;;7371252;19;20032;-76
2023/08/01 02:34:57;;;;;;;7.75;4.05;;;;;;;;;;7392813;19;20061;-78
2023/08/01 02:37:22;;;;;;;11.43;4.20;;;;;;;;;;7371391;19;20002;-78
2023/08/01 02:39:48;;;;;;;8.43;4.53;;;;;;;;;;7370127;19;20010;-78
2023/08/01 02:42:13;;;;;;;9.23;4.15;;;;;;;;;;7370305;19;20010;-77
2023/08/01 02:44:38;;;;;;;9.98;4.25;;;;;;;;;;7368063;19;20010;-77
2023/08/01 02:47:05;;;;;;;9.38;4.05;;;;;;;;;;7369755;19;20020;-77
2023/08/01 02:49:31;;;;;;;9.68;4.25;;;;;;;;;;7391351;19;20066;-77
2023/08/01 02:51:56;;;;;;;11.73;3.85;;;;;;;;;;7370355;19;20031;-78
2023/08/01 02:54:21;;;;;;;7.30;3.25;;;;;;;;;;7371413;19;20002;-78
2023/08/01 02:56:47;;;;;;;6.80;3.47;;;;;;;;;;7397541;19;20014;-78
2023/08/01 02:59:12;;;;;;;6.88;3.50;;;;;;;;;;7390801;19;20006;-78
2023/08/01 03:01:38;;;;;;;6.80;3.20;;;;;;;;;;7419175;19;20027;-79
2023/08/01 03:04:04;;;;;;;6.30;3.50;;;;;;;;;;7372361;19;20073;-79
2023/08/01 03:06:31;;;;;;;7.85;3.33;;;;;;;;;;7374366;19;20005;-79
2023/08/01 03:08:56;;;;;;;5.55;3.28;;;;;;;;;;7378032;19;20011;-78
2023/08/01 03:11:21;;;;;;;8.18;2.88;;;;;;;;;;7374098;19;20283;-79
2023/08/01 03:13:47;;;;;;;4.65;2.50;;;;;;;;;;7395628;19;20062;-80
2023/08/01 03:16:12;;;;;;;6.43;2.90;;;;;;;;;;7378080;19;20036;-80
2023/08/01 03:18:37;;;;;;;4.63;2.90;;;;;;;;;;7375816;19;20007;-80
2023/08/01 03:21:03;;;;;;;7.10;3.10;;;;;;;;;;7373260;19;20045;-79
2023/08/01 03:23:29;;;;;;;6.38;2.70;;;;;;;;;;7371752;19;20403;-80
2023/08/01 03:25:55;;;;;;;5.18;2.97;;;;;;;;;;7394698;19;20034;-79
2023/08/01 03:28:20;;;;;;;5.95;3.25;;;;;;;;;;7371953;19;20007;-79
2023/08/01 03:30:45;;;;;;;6.25;2.97;;;;;;;;;;7369634;19;20003;-81
2023/08/01 03:33:11;;;;;;;6.10;3.10;;;;;;;;;;7369654;19;20039;-79
2023/08/01 03:35:36;;;;;;;4.43;2.70;;;;;;;;;;7375753;19;20251;-80
2023/08/01 03:38:02;;;;;;;5.78;3.00;;;;;;;;;;7377903;19;20002;-80
2023/08/01 03:40:27;;;;;;;5.82;2.92;;;;;;;;;;7403266;19;20010;-79
2023/08/01 03:42:52;;;;;;;9.00;3.35;;;;;;;;;;7376634;19;20468;-76
2023/08/01 03:45:18;;;;;;;9.82;3.60;;;;;;;;;;7377720;19;20059;-79
2023/08/01 03:47:43;;;;;;;8.32;3.42;;;;;;;;;;7378419;19;20011;-79
2023/08/01 03:50:09;;;;;;;6.63;3.15;;;;;;;;;;7378496;19;20042;-81
2023/08/01 03:52:34;;;;;;;7.05;3.40;;;;;;;;;;7399894;19;20492;-79
2023/08/01 03:55:00;;;;;;;7.38;3.28;;;;;;;;;;7373504;19;20006;-79
2023/08/01 03:57:25;;;;;;;12.57;3.50;;;;;;;;;;7375007;19;20034;-79
2023/08/01 03:59:50;;;;;;;6.43;3.55;;;;;;;;;;7376040;19;20425;-80
2023/08/01 04:02:16;;;;;;;6.50;3.10;;;;;;;;;;7375299;19;20017;-79
2023/08/01 04:04:42;;;;;;;6.25;3.00;;;;;;;;;;7397204;19;20109;-81
2023/08/01 04:07:08;;;;;;;7.00;3.47;;;;;;;;;;7376497;19;20495;-79
2023/08/01 04:09:34;;;;;;;7.43;3.58;;;;;;;;;;7377045;19;20006;-79
2023/08/01 04:12:00;;;;;;;7.80;3.05;;;;;;;;;;7375826;19;20007;-81
2023/08/01 04:14:25;;;;;;;7.28;3.65;;;;;;;;;;7373268;19;20007;-80
2023/08/01 04:16:50;;;;;;;8.35;3.22;;;;;;;;;;7396640;19;20151;-80
2023/08/01 04:19:16;;;;;;;7.18;3.55;;;;;;;;;;7376980;19;20017;-79
2023/08/01 04:21:41;;;;;;;5.75;3.15;;;;;;;;;;7374677;19;20014;-78
2023/08/01 04:24:07;;;;;;;6.38;3.15;;;;;;;;;;7374084;19;20104;-79
2023/08/01 04:26:32;;;;;;;5.70;3.30;;;;;;;;;;7373959;19;20552;-78
2023/08/01 04:28:57;;;;;;;11.05;3.25;;;;;;;;;;7397470;19;20049;-79
2023/08/01 04:31:22;;;;;;;5.90;2.78;;;;;;;;;;7375563;19;20015;-77
2023/08/01 04:33:48;;;;;;;6.10;2.88;;;;;;;;;;7371121;19;20020;-77
2023/08/01 04:36:14;;;;;;;4.93;2.70;;;;;;;;;;7376060;19;20007;-79
2023/08/01 04:38:40;;;;;;;5.50;2.72;;;;;;;;;;7388265;19;20002;-80
2023/08/01 04:41:05;;;;;;;4.97;2.78;;;;;;;;;;7394645;19;20402;-80
2023/08/01 04:43:31;;;;;;;5.32;2.30;;;;;;;;;;7408709;19;20022;-78
2023/08/01 04:45:56;;;;;;;6.57;2.88;;;;;;;;;;7374953;19;20007;-79
2023/08/01 04:48:21;;;;;;;6.78;2.38;;;;;;;;;;7375524;19;20003;-78
2023/08/01 04:50:46;;;;;;;4.35;2.13;;;;;;;;;;7370132;19;20010;-76
2023/08/01 04:53:12;;;;;;;9.98;2.65;;;;;;;;;;7368065;19;20018;-77
2023/08/01 04:55:37;;;;;;;5.65;2.50;;;;;;;;;;7391968;19;20002;-78
2023/08/01 04:58:03;;;;;;;4.35;2.47;;;;;;;;;;7371783;19;20016;-76
2023/08/01 05:00:28;;;;;;;5.93;2.28;;;;;;;;;;7372774;19;20032;-77
2023/08/01 05:02:53;;;;;;;4.60;2.17;;;;;;;;;;7371366;19;20023;-78
2023/08/01 05:05:19;;;;;;;3.60;2.10;;;;;;;;;;7357736;19;20374;-77
2023/08/01 05:07:44;;;;;;;7.22;2.40;;;;;;;;;;7386671;19;20003;-77
2023/08/01 05:10:10;;;;;;;4.72;2.30;;;;;;;;;;7369125;19;20002;-78
2023/08/01 05:12:35;;;;;;;4.63;2.15;;;;;;;;;;7372718;19;20017;-78
2023/08/01 05:15:00;;;;;;;3.53;2.25;;;;;;;;;;7369834;19;20010;-78
2023/08/01 05:17:26;;;;;;;2.30;1.83;;;;;;;;;;7372318;19;20079;-78
2023/08/01 05:19:51;;;;;;;3.65;2.08;;;;;;;;;;7393422;19;19998;-77
2023/08/01 05:22:16;;;;;;;3.97;1.80;;;;;;;;;;7371912;19;20019;-77
2023/08/01 05:24:42;;;;;;;3.35;1.80;;;;;;;;;;7369353;19;20041;-77
2023/08/01 05:27:07;;;;;;;3.22;2.05;;;;;;;;;;7371823;19;20015;-77
2023/08/01 05:29:32;;;;;;;5.93;2.08;;;;;;;;;;7371066;19;20034;-77
2023/08/01 05:31:58;;;;;;;4.18;2.10;;;;;;;;;;7393084;19;20003;-76
2023/08/01 05:34:23;;;;;;;5.38;2.10;;;;;;;;;;7369619;19;20009;-74
2023/08/01 05:36:50;;;;;;;3.40;2.10;;;;;;;;;;7362659;19;22106;-75
2023/08/01 05:39:16;;;;;;;5.97;2.40;;;;;;;;;;7364339;19;20014;-76
2023/08/01 05:41:41;;;;;;;5.32;1.90;;;;;;;;;;7365102;19;20532;-75
2023/08/01 05:44:07;;;;;;;4.03;1.98;;;;;;;;;;7365107;19;20015;-74
2023/08/01 05:46:32;;;;;;;4.00;1.80;;;;;;;;;;7387666;19;20066;-78
2023/08/01 05:48:57;;;;;;;3.10;1.70;;;;;;;;;;7378530;19;20050;-76
2023/08/01 05:51:23;;;;;;;3.40;2.00;;;;;;;;;;7367481;19;20018;-75
2023/08/01 05:53:48;;;;;;;3.10;1.65;;;;;;;;;;7364828;19;20236;-74
2023/08/01 05:56:14;;;;;;;3.53;1.90;;;;;;;;;;7357127;19;19998;-76
2023/08/01 05:58:39;;;;;;;3.78;1.90;;;;;;;;;;7387095;19;20046;-78
2023/08/01 06:01:05;;;;;;;3.60;1.70;;;;;;;;;;7366496;19;20006;-75
2023/08/01 06:03:30;;;;;;;3.90;1.67;;;;;;;;;;7366177;19;20015;-78
2023/08/01 06:05:56;;;;;;;3.97;1.98;;;;;;;;;;7367573;19;20363;-78
2023/08/01 06:08:21;;;;;;;3.60;2.10;;;;;;;;;;7369139;19;21657;-75
2023/08/01 06:10:46;;;;;;;4.50;2.13;;;;;;;;;;7390268;19;20264;-76
2023/08/01 06:13:12;;;;;;;4.22;2.10;;;;;;;;;;7365370;19;20080;-76
2023/08/01 06:15:37;;;;;;;3.83;1.98;;;;;;;;;;7367289;19;20006;-76
2023/08/01 06:18:02;;;;;;;3.22;1.85;;;;;;;;;;7365644;19;20045;-74
2023/08/01 06:20:28;;;;;;;5.25;2.40;;;;;;;;;;7366899;19;20706;-76
2023/08/01 06:22:53;;;;;;;5.63;2.42;;;;;;;;;;7390298;19;20508;-75
2023/08/01 06:25:19;;;;;;;4.78;2.55;;;;;;;;;;7365893;19;20015;-75
2023/08/01 06:27:44;;;;;;;4.57;2.40;;;;;;;;;;7367009;19;20036;-76
2023/08/01 06:30:10;;;;;;;6.55;2.65;;;;;;;;;;7368523;19;20007;-75
2023/08/01 06:32:36;;;;;;;6.55;2.60;;;;;;;;;;7366288;19;20014;-75
2023/08/01 06:35:01;;;;;;;5.82;2.30;;;;;;;;;;7362771;19;20002;-76
2023/08/01 06:37:26;;;;;;;5.93;2.80;;;;;;;;;;7386747;19;20003;-76
2023/08/01 06:39:52;;;;;;;5.18;2.45;;;;;;;;;;7365724;19;20006;-77
2023/08/01 06:42:17;;;;;;;5.35;2.55;;;;;;;;;;7364276;19;20093;-76
2023/08/01 06:44:43;;;;;;;7.45;2.33;;;;;;;;;;7365326;19;20397;-76
2023/08/01 06:47:08;;;;;;;3.83;2.13;;;;;;;;;;7368517;19;19999;-76
2023/08/01 06:49:34;;;;;;;3.40;1.80;;;;;;;;;;7390921;19;20546;-75
2023/08/01 06:51:59;;;;;;;2.80;1.73;;;;;;;;;;7369108;19;20506;-77
2023/08/01 06:54:24;;;;;;;2.35;1.52;;;;;;;;;;7377106;19;20010;-75
2023/08/01 06:56:50;;;;;;;1.95;1.20;;;;;;;;;;7405311;19;20012;-75
2023/08/01 06:59:15;;;;;;;1.52;1.10;;;;;;;;;;7391368;19;19998;-74
2023/08/01 07:01:43;;;;;;;2.75;1.02;;;;;;;;;;7407402;19;20409;-75
2023/08/01 07:04:09;;;;;;;2.30;0.90;;;;;;;;;;7373592;19;20003;-76
2023/08/01 07:06:35;;;;;;;0.98;0.70;;;;;;;;;;7374223;19;20028;-76
2023/08/01 07:09:00;;;;;;;2.17;0.80;;;;;;;;;;7374512;19;20010;-76
2023/08/01 07:11:25;;;;;;;1.10;0.90;;;;;;;;;;7380137;19;20379;-75
2023/08/01 07:13:51;;;;;;;0.77;0.70;;;;;;;;;;7399815;19;20489;-75
2023/08/01 07:16:16;;;;;;;0.77;0.70;;;;;;;;;;7377869;19;19999;-75
2023/08/01 07:18:41;;;;;;;1.00;0.90;;;;;;;;;;7373626;19;20011;-76
2023/08/01 07:21:07;;;;;;;2.25;1.10;;;;;;;;;;7376225;19;20089;-77
2023/08/01 07:23:34;;;;;;;0.70;0.70;;;;;;;;;;7378563;19;20031;-76
2023/08/01 07:25:59;;;;;;;0.90;0.73;;;;;;;;;;7401647;19;19999;-76
2023/08/01 07:28:24;;;;;;;0.93;0.93;;;;;;;;;;7381996;19;20031;-76
2023/08/01 07:31:00;;;;;;;1.20;1.10;;;;;;;;;;7376933;19;20002;-76
2023/08/01 07:33:25;;;;;;;0.95;0.85;;;;;;;;;;7374967;19;20350;-75
2023/08/01 07:35:51;;;;;;;0.88;0.88;;;;;;;;;;7374803;19;20006;-76
2023/08/01 07:38:17;;;;;;;1.45;1.10;;;;;;;;;;7373748;19;20496;-77
2023/08/01 07:40:42;;;;;;;0.80;0.80;;;;;;;;;;7397968;19;20002;-76
2023/08/01 07:43:07;;;;;;;1.42;1.20;;;;;;;;;;7375153;19;20349;-75
2023/08/01 07:45:34;;;;;;;0.90;0.90;;;;;;;;;;7374411;19;20571;-76
2023/08/01 07:48:00;;;;;;;2.35;1.08;;;;;;;;;;7376229;19;20010;-76
2023/08/01 07:50:26;;;;;;;1.00;0.90;;;;;;;;;;7376363;19;20002;-76
2023/08/01 07:52:51;;;;;;;1.38;0.98;;;;;;;;;;7398054;19;19998;-75
2023/08/01 07:55:18;;;;;;;1.73;1.10;;;;;;;;;;7372034;19;20011;-77
2023/08/01 07:57:43;;;;;;;3.65;1.05;;;;;;;;;;7374893;19;20010;-76
2023/08/01 08:00:10;;;;;;;2.35;1.20;;;;;;;;;;7373053;19;20013;-75
2023/08/01 08:02:36;;;;;;;1.33;1.20;;;;;;;;;;7375710;19;20020;-75
2023/08/01 08:05:01;;;;;;;1.55;1.30;;;;;;;;;;7370415;19;20495;-75
2023/08/01 08:07:27;;;;;;;2.80;1.20;;;;;;;;;;7395819;19;20002;-75
2023/08/01 08:09:54;;;;;;;2.15;1.20;;;;;;;;;;7374544;19;20026;-75
2023/08/01 08:12:20;;;;;;;2.25;1.30;;;;;;;;;;7374336;19;20032;-75
2023/08/01 08:14:46;;;;;;;2.05;1.30;;;;;;;;;;7372448;19;20069;-75
2023/08/01 08:17:11;;;;;;;1.48;1.10;;;;;;;;;;7374535;19;19999;-75
2023/08/01 08:19:36;;;;;;;1.73;1.05;;;;;;;;;;7395910;19;20014;-76
2023/08/01 08:22:02;;;;;;;2.45;1.35;;;;;;;;;;7372716;19;20019;-75
2023/08/01 08:24:27;;;;;;;1.17;1.05;;;;;;;;;;7370762;19;20030;-75
2023/08/01 08:26:52;;;;;;;2.47;1.20;;;;;;;;;;7373205;19;20006;-76
2023/08/01 08:29:18;;;;;;;0.98;0.98;;;;;;;;;;7372921;19;20097;-76
2023/08/01 08:31:43;;;;;;;1.60;1.30;;;;;;;;;;7394942;19;20007;-63
2023/08/01 08:34:08;;;;;;;1.13;1.00;;;;;;;;;;7370578;19;20002;-63
2023/08/01 08:36:34;;;;;;;1.30;1.20;;;;;;;;;;7374042;19;20038;-63
2023/08/01 08:39:00;;;;;;;3.47;1.30;;;;;;;;;;7372624;19;20617;-67
2023/08/01 08:41:27;;;;;;;2.38;1.40;;;;;;;;;;7372698;19;20018;-63
2023/08/01 08:43:56;;;;;;;1.55;1.10;;;;;;;;;;7393036;19;20087;-63
2023/08/01 08:46:27;;;;;;;5.00;1.52;;;;;;;;;;7372466;19;20031;-64
2023/08/01 08:48:53;;;;;;;3.15;1.35;;;;;;;;;;7371492;19;20476;-63
2023/08/01 08:51:21;;;;;;;2.75;1.50;;;;;;;;;;7371874;19;20034;-63
2023/08/01 08:53:47;;;;;;;1.80;1.35;;;;;;;;;;7371358;19;20002;-64
2023/08/01 08:56:14;;;;;;;1.20;1.20;;;;;;;;;;7372369;19;20490;-63
2023/08/01 08:58:40;;;;;;;2.20;1.00;;;;;;;;;;7391758;19;20007;-64
2023/08/01 09:01:07;;;;;;;3.08;1.40;;;;;;;;;;7371133;19;20334;-64
2023/08/01 09:03:33;;;;;;;2.78;1.30;;;;;;;;;;7371481;19;20370;-66
2023/08/01 09:06:11;;;;;;;3.00;1.15;;;;;;;;;;7372369;19;20117;-67
2023/08/01 09:08:39;;;;;;;1.77;1.33;;;;;;;;;;7373260;19;20011;-62
2023/08/01 09:11:05;;;;;;;1.30;1.20;;;;;;;;;;7371754;19;20038;-68
2023/08/01 09:13:31;;;;;;;1.67;1.30;;;;;;;;;;7392199;19;20553;-66
2023/08/01 09:15:56;;;;;;;4.65;1.67;;;;;;;;;;7370740;19;20014;-63
2023/08/01 09:18:22;;;;;;;1.95;1.40;;;;;;;;;;7370062;19;20015;-61
2023/08/01 09:20:49;;;;;;;5.70;1.50;;;;;;;;;;7370224;19;20014;-62
2023/08/01 09:23:17;;;;;;;2.08;1.40;;;;;;;;;;7371107;19;20006;-63
2023/08/01 09:25:43;;;;;;;1.73;1.40;;;;;;;;;;7392280;19;20007;-63
2023/08/01 09:28:23;;;;;;;2.08;1.50;;;;;;;;;;7371160;19;20469;-63
2023/08/01 09:30:55;;;;;;;2.97;1.50;;;;;;;;;;7370737;19;20073;-63
2023/08/01 09:33:20;;;;;;;4.53;1.60;;;;;;;;;;7367130;19;20031;-65
2023/08/01 09:35:46;;;;;;;1.58;1.40;;;;;;;;;;7369731;19;20073;-64
2023/08/01 09:38:15;;;;;;;3.05;1.60;;;;;;;;;;7370195;19;20009;-64
2023/08/01 09:40:42;;;;;;;1.67;1.20;;;;;;;;;;7392387;19;20014;-63
2023/08/01 09:43:07;;;;;;;4.53;1.80;;;;;;;;;;7369349;19;20417;-64
2023/08/01 09:45:34;;;;;;;5.07;1.90;;;;;;;;;;7370963;19;20048;-63
2023/08/01 09:48:00;;;;;;;3.25;1.70;;;;;;;;;;7370320;19;20045;-63
2023/08/01 09:50:25;;;;;;;3.28;1.90;;;;;;;;;;7370817;19;20374;-64
2023/08/01 09:52:54;;;;;;;2.78;1.45;;;;;;;;;;7391782;19;20035;-63
2023/08/01 09:55:32;;;;;;;2.58;1.60;;;;;;;;;;7368079;19;20010;-63
2023/08/01 09:57:59;;;;;;;3.70;1.75;;;;;;;;;;7369261;19;20006;-64
2023/08/01 10:00:29;;;;;;;3.13;1.45;;;;;;;;;;7369823;19;20805;-63
2023/08/01 10:03:01;;;;;;;5.53;1.60;;;;;;;;;;7369838;19;20002;-65
2023/08/01 10:05:31;;;;;;;4.03;1.60;;;;;;;;;;7367877;19;20491;-64
2023/08/01 10:08:00;;;;;;;2.88;1.70;;;;;;;;;;7391744;19;20002;-64
2023/08/01 10:10:25;;;;;;;2.03;1.40;;;;;;;;;;7369640;19;20010;-64
2023/08/01 10:12:51;;;;;;;2.50;1.50;;;;;;;;;;7369463;19;20071;-64
2023/08/01 10:15:17;;;;;;;4.53;1.80;;;;;;;;;;7367201;19;20128;-63
2023/08/01 10:17:44;;;;;;;3.33;1.70;;;;;;;;;;7368785;19;20051;-66
2023/08/01 10:20:13;;;;;;;2.58;1.52;;;;;;;;;;7367973;19;20014;-66
2023/08/01 10:22:40;;;;;;;2.85;1.50;;;;;;;;;;7392443;19;20447;-67
2023/08/01 10:25:07;;;;;;;3.45;1.50;;;;;;;;;;7368603;19;20002;-66
2023/08/01 10:27:33;;;;;;;3.90;2.08;;;;;;;;;;7368258;19;20855;-66
2023/08/01 10:30:03;;;;;;;3.17;1.60;;;;;;;;;;7370072;19;20007;-66
2023/08/01 10:32:38;;;;;;;4.30;1.60;;;;;;;;;;7361334;19;20464;-68
2023/08/01 10:35:04;;;;;;;7.82;1.80;;;;;;;;;;7366837;19;20002;-67
2023/08/01 10:37:43;;;;;;;3.92;1.50;;;;;;;;;;7389903;19;19999;-67
2023/08/01 10:40:09;;;;;;;2.30;1.60;;;;;;;;;;7368359;19;20010;-65
2023/08/01 10:42:44;;;;;;;3.95;1.63;;;;;;;;;;7368715;19;20002;-66
2023/08/01 10:45:23;;;;;;;4.03;1.50;;;;;;;;;;7367845;19;20025;-66
2023/08/01 10:47:49;;;;;;;3.13;1.50;;;;;;;;;;7368324;19;20002;-66
2023/08/01 10:50:16;;;;;;;3.58;1.70;;;;;;;;;;7367998;19;20070;-65
2023/08/01 10:52:41;;;;;;;2.75;1.50;;;;;;;;;;7389792;19;20002;-65
2023/08/01 10:55:07;;;;;;;3.88;1.73;;;;;;;;;;7366263;19;19994;-64
2023/08/01 10:57:36;;;;;;;4.57;1.73;;;;;;;;;;7373290;19;20002;-64
2023/08/01 11:00:03;;;;;;;3.95;1.80;;;;;;;;;;7374009;19;20010;-64
2023/08/01 11:02:30;;;;;;;5.60;1.63;;;;;;;;;;7374071;19;20014;-64
2023/08/01 11:05:07;;;;;;;3.00;1.77;;;;;;;;;;7386997;19;20003;-65
2023/08/01 11:07:33;;;;;;;4.28;1.80;;;;;;;;;;7368068;19;20026;-64
2023/08/01 11:10:10;;;;;;;3.65;1.65;;;;;;;;;;7366301;19;20279;-64
2023/08/01 11:12:39;;;;;;;3.17;1.60;;;;;;;;;;7368135;19;20013;-64
2023/08/01 11:15:08;;;;;;;3.77;2.07;;;;;;;;;;7367556;19;19995;-65
2023/08/01 11:17:34;;;;;;;3.78;1.50;;;;;;;;;;7366929;19;20002;-65
2023/08/01 11:20:11;;;;;;;3.28;1.70;;;;;;;;;;7389748;19;20416;-65
2023/08/01 11:22:37;;;;;;;5.13;2.05;;;;;;;;;;7368300;19;20010;-67
2023/08/01 11:25:03;;;;;;;3.10;1.70;;;;;;;;;;7365958;19;20022;-73
2023/08/01 11:27:29;;;;;;;3.03;1.60;;;;;;;;;;7368012;19;20457;-75
2023/08/01 11:29:55;;;;;;;3.47;1.90;;;;;;;;;;7368507;19;20021;-75
2023/08/01 11:32:21;;;;;;;4.85;1.80;;;;;;;;;;7367940;19;20007;-75
2023/08/01 11:34:47;;;;;;;4.43;1.77;;;;;;;;;;7387746;19;20545;-76
2023/08/01 11:37:15;;;;;;;2.30;1.50;;;;;;;;;;7367270;19;20693;-75
2023/08/01 11:39:40;;;;;;;4.60;1.90;;;;;;;;;;7368737;19;20018;-75
2023/08/01 11:42:06;;;;;;;4.38;1.80;;;;;;;;;;7369152;19;20059;-75
2023/08/01 11:44:31;;;;;;;3.60;1.70;;;;;;;;;;7364854;19;20015;-76
2023/08/01 11:46:57;;;;;;;3.30;1.60;;;;;;;;;;7392055;19;20482;-75
2023/08/01 11:49:22;;;;;;;2.92;1.63;;;;;;;;;;7369486;19;20010;-76
2023/08/01 11:51:48;;;;;;;3.67;1.60;;;;;;;;;;7369810;19;20039;-76
2023/08/01 11:54:15;;;;;;;2.97;1.55;;;;;;;;;;7365753;19;20530;-67
2023/08/01 11:56:41;;;;;;;4.18;1.67;;;;;;;;;;7370787;19;20027;-68
2023/08/01 11:59:16;;;;;;;3.40;1.40;;;;;;;;;;7370977;19;19998;-69
2023/08/01 12:01:46;;;;;;;4.07;1.80;;;;;;;;;;7394627;19;20006;-69
2023/08/01 12:04:23;;;;;;;3.67;1.65;;;;;;;;;;7371972;19;20003;-68
2023/08/01 12:06:48;;;;;;;3.72;1.80;;;;;;;;;;7373469;19;20019;-68
2023/08/01 12:09:14;;;;;;;3.85;1.73;;;;;;;;;;7373511;19;20003;-67
2023/08/01 12:11:40;;;;;;;3.50;1.65;;;;;;;;;;7374321;19;20011;-67
2023/08/01 12:14:11;;;;;;;4.35;1.90;;;;;;;;;;7371143;19;20010;-68
2023/08/01 12:16:46;;;;;;;3.05;1.50;;;;;;;;;;7394992;19;20375;-68
2023/08/01 12:19:19;;;;;;;4.00;1.70;;;;;;;;;;7371221;19;20035;-68
2023/08/01 12:21:45;;;;;;;6.40;1.60;;;;;;;;;;7372715;19;20040;-68
2023/08/01 12:24:10;;;;;;;4.13;1.83;;;;;;;;;;7371355;19;19995;-68
2023/08/01 12:26:35;;;;;;;3.63;1.65;;;;;;;;;;7373528;19;20006;-67
2023/08/01 12:29:01;;;;;;;2.80;1.50;;;;;;;;;;7376218;19;20025;-67
2023/08/01 12:31:26;;;;;;;4.15;1.67;;;;;;;;;;7395222;19;20034;-67
2023/08/01 12:33:53;;;;;;;3.67;1.75;;;;;;;;;;7371432;19;20011;-67
2023/08/01 12:36:19;;;;;;;3.35;1.60;;;;;;;;;;7370247;19;20531;-68
2023/08/01 12:38:44;;;;;;;3.33;1.70;;;;;;;;;;7371185;19;20002;-67
2023/08/01 12:41:09;;;;;;;3.00;1.70;;;;;;;;;;7371413;19;20015;-67
2023/08/01 12:43:36;;;;;;;4.00;1.80;;;;;;;;;;7392201;19;20010;-67
2023/08/01 12:46:01;;;;;;;4.70;1.75;;;;;;;;;;7371454;19;20350;-66
2023/08/01 12:48:28;;;;;;;5.25;1.80;;;;;;;;;;7371477;19;20013;-65
2023/08/01 12:50:53;;;;;;;5.65;1.70;;;;;;;;;;7372188;19;20016;-67
2023/08/01 12:53:19;;;;;;;4.22;1.70;;;;;;;;;;7371293;19;21326;-67
2023/08/01 12:55:49;;;;;;;2.42;1.60;;;;;;;;;;7393905;19;20023;-66
2023/08/01 12:58:14;;;;;;;5.97;1.90;;;;;;;;;;7370707;19;19998;-67
2023/08/01 13:00:41;;;;;;;3.47;1.60;;;;;;;;;;7372353;19;20006;-65
2023/08/01 13:03:09;;;;;;;3.63;1.65;;;;;;;;;;7371077;19;20015;-67
2023/08/01 13:05:35;;;;;;;3.28;1.90;;;;;;;;;;7371701;19;20015;-66
2023/08/01 13:08:01;;;;;;;3.20;1.70;;;;;;;;;;7376934;19;20464;-67
2023/08/01 13:10:30;;;;;;;3.67;1.65;;;;;;;;;;7393002;19;20034;-67
2023/08/01 13:12:55;;;;;;;2.17;1.52;;;;;;;;;;7371339;19;20002;-66
2023/08/01 13:15:20;;;;;;;4.47;1.58;;;;;;;;;;7369539;19;20515;-66
2023/08/01 13:17:45;;;;;;;3.15;1.70;;;;;;;;;;7370803;19;20006;-67
2023/08/01 13:20:11;;;;;;;4.72;1.70;;;;;;;;;;7371629;19;19995;-66
2023/08/01 13:22:36;;;;;;;3.58;1.63;;;;;;;;;;7393367;19;20027;-66
2023/08/01 13:25:06;;;;;;;3.47;1.63;;;;;;;;;;7368087;19;20007;-66
2023/08/01 13:27:33;;;;;;;2.47;1.50;;;;;;;;;;7370882;19;20035;-66
2023/08/01 13:29:59;;;;;;;3.75;1.70;;;;;;;;;;7370927;19;20423;-66
2023/08/01 13:32:24;;;;;;;3.10;1.50;;;;;;;;;;7369349;19;20010;-66
2023/08/01 13:34:49;;;;;;;2.33;1.52;;;;;;;;;;7390484;19;20326;-67
2023/08/01 13:37:15;;;;;;;2.10;1.50;;;;;;;;;;7370376;19;20033;-67
2023/08/01 13:39:40;;;;;;;3.75;1.67;;;;;;;;;;7369210;19;20049;-69
2023/08/01 13:42:05;;;;;;;6.43;1.52;;;;;;;;;;7369889;19;20124;-67
2023/08/01 13:44:31;;;;;;;3.85;1.58;;;;;;;;;;7368139;19;20031;-66
2023/08/01 13:46:56;;;;;;;3.92;1.80;;;;;;;;;;7391741;19;19995;-64
2023/08/01 13:49:21;;;;;;;2.83;1.63;;;;;;;;;;7369253;19;20014;-74
2023/08/01 13:51:47;;;;;;;3.10;1.55;;;;;;;;;;7369746;19;20120;-74
2023/08/01 13:54:12;;;;;;;7.90;2.00;;;;;;;;;;7368690;19;19998;-73
2023/08/01 13:56:38;;;;;;;4.20;1.83;;;;;;;;;;7369146;19;20154;-73
2023/08/01 13:59:03;;;;;;;3.90;1.75;;;;;;;;;;7369039;19;20051;-73
2023/08/01 14:01:29;;;;;;;3.05;1.80;;;;;;;;;;7392442;19;20879;-72
2023/08/01 14:03:54;;;;;;;4.25;2.00;;;;;;;;;;7368284;19;20007;-74
2023/08/01 14:06:19;;;;;;;3.92;1.80;;;;;;;;;;7369536;19;20002;-73
2023/08/01 14:08:45;;;;;;;4.95;2.00;;;;;;;;;;7370072;19;20039;-73
2023/08/01 14:11:10;;;;;;;5.03;1.95;;;;;;;;;;7368548;19;20009;-73
2023/08/01 14:13:36;;;;;;;3.35;1.70;;;;;;;;;;7390914;19;20416;-73
2023/08/01 14:16:02;;;;;;;9.05;2.10;;;;;;;;;;7369098;19;20491;-74
2023/08/01 14:18:28;;;;;;;5.32;2.10;;;;;;;;;;7368256;19;20005;-73
2023/08/01 14:20:54;;;;;;;5.88;1.90;;;;;;;;;;7370054;19;20078;-73
2023/08/01 14:23:20;;;;;;;4.03;1.90;;;;;;;;;;7368809;19;20537;-73
2023/08/01 14:25:45;;;;;;;7.05;2.10;;;;;;;;;;7391214;19;20091;-73
2023/08/01 14:28:11;;;;;;;5.35;2.15;;;;;;;;;;7368594;19;20006;-74
2023/08/01 14:30:37;;;;;;;3.88;1.70;;;;;;;;;;7364493;19;20014;-73
2023/08/01 14:33:08;;;;;;;5.15;1.83;;;;;;;;;;7372144;19;20019;-73
2023/08/01 14:35:35;;;;;;;3.75;1.88;;;;;;;;;;7368741;19;20011;-74